Time;durP1;ratioP1;P1;durP2;ratioP2;P2;SDS_P1;SDS_P2;PMS_P1;PMS_P2;Temp;Humidity;BMP_temperature;BMP_pressure;BME280_temperature;BME280_humidity;BME280_pressure;Samples;Min_cycle;Max_cycle;Signal;HPM_P1;HPM_P2
2022/05/13 00:01:07;;;;;;;8.23;6.53;;;17.50;48.00;;;;;;4974752;28;20182;-73
2022/05/13 00:03:33;;;;;;;6.20;5.30;;;17.40;47.90;;;;;;4974589;28;20231;-73
2022/05/13 00:05:59;;;;;;;5.57;5.07;;;17.50;48.00;;;;;;4974488;28;20782;-73
2022/05/13 00:08:24;;;;;;;7.77;6.03;;;17.40;47.90;;;;;;4974039;28;20433;-73
2022/05/13 00:10:50;;;;;;;4.97;4.47;;;17.40;47.90;;;;;;4974341;28;20496;-72
2022/05/13 00:13:16;;;;;;;7.13;5.33;;;17.40;47.90;;;;;;4974290;28;20181;-73
2022/05/13 00:15:42;;;;;;;8.57;6.27;;;17.40;47.90;;;;;;4974131;28;20556;-73
2022/05/13 00:18:09;;;;;;;7.67;5.47;;;17.40;47.40;;;;;;4973762;28;20460;-73
2022/05/13 00:20:35;;;;;;;5.10;4.17;;;17.40;46.80;;;;;;4974080;28;20417;-74
2022/05/13 00:23:00;;;;;;;18.80;5.40;;;17.20;47.70;;;;;;4974010;28;20464;-73
2022/05/13 00:25:30;;;;;;;7.80;5.10;;;17.20;47.20;;;;;;4974154;28;20427;-73
2022/05/13 00:27:57;;;;;;;6.17;4.90;;;17.20;47.60;;;;;;4973873;28;20210;-72
2022/05/13 00:30:22;;;;;;;7.40;5.50;;;17.20;47.00;;;;;;4974193;28;20440;-72
2022/05/13 00:32:49;;;;;;;5.00;4.50;;;17.20;47.20;;;;;;4956732;28;20436;-72
2022/05/13 00:35:16;;;;;;;4.93;4.40;;;17.20;47.70;;;;;;4974083;28;20181;-72
2022/05/13 00:37:42;;;;;;;4.47;4.07;;;17.20;47.70;;;;;;4973537;28;20752;-73
2022/05/13 00:40:09;;;;;;;5.13;3.77;;;17.20;47.80;;;;;;4973769;28;20420;-72
2022/05/13 00:42:34;;;;;;;5.60;5.10;;;17.20;47.80;;;;;;4956192;28;20205;-72
2022/05/13 00:45:00;;;;;;;5.93;5.30;;;17.20;47.70;;;;;;4956300;28;20432;-73
2022/05/13 00:47:29;;;;;;;6.27;3.97;;;17.30;46.80;;;;;;4973453;28;20619;-74
2022/05/13 00:49:56;;;;;;;5.57;3.50;;;17.30;47.10;;;;;;4973634;28;20643;-73
2022/05/13 00:52:23;;;;;;;4.33;3.40;;;17.30;47.10;;;;;;4973560;28;20428;-73
2022/05/13 00:54:49;;;;;;;5.97;5.37;;;17.30;47.20;;;;;;4973466;28;20421;-72
2022/05/13 00:57:16;;;;;;;5.73;4.87;;;17.20;47.70;;;;;;4973101;28;20471;-73
2022/05/13 00:59:44;;;;;;;7.83;4.90;;;17.20;47.70;;;;;;4972838;28;20772;-72
2022/05/13 01:02:10;;;;;;;5.20;4.23;;;17.20;47.80;;;;;;4973383;28;20460;-72
2022/05/13 01:04:38;;;;;;;4.40;3.73;;;17.20;47.20;;;;;;4973428;28;20420;-72
2022/05/13 01:07:08;;;;;;;4.07;3.67;;;17.20;46.80;;;;;;4973354;28;20444;-72
2022/05/13 01:09:38;;;;;;;5.43;3.57;;;17.20;46.60;;;;;;4956161;28;20420;-72
2022/05/13 01:12:09;;;;;;;4.60;3.80;;;17.20;46.50;;;;;;4973334;28;20491;-72
2022/05/13 01:14:46;;;;;;;4.27;3.83;;;17.20;46.10;;;;;;4955992;28;20514;-72
2022/05/13 01:20:17;;;;;;;4.90;3.80;;;17.20;46.70;;;;;;4973315;28;20414;-72
2022/05/13 01:22:48;;;;;;;3.33;3.03;;;17.20;47.10;;;;;;4956129;28;20469;-71
2022/05/13 01:25:17;;;;;;;5.30;3.87;;;17.10;47.60;;;;;;4973232;28;20416;-71
2022/05/13 01:27:44;;;;;;;4.50;4.07;;;17.10;47.70;;;;;;4972781;28;20432;-71
2022/05/13 01:30:13;;;;;;;4.47;3.83;;;17.20;47.60;;;;;;4973087;28;20428;-72
2022/05/13 01:32:38;;;;;;;3.80;3.43;;;17.10;47.60;;;;;;4973013;28;20524;-72
2022/05/13 01:35:05;;;;;;;6.07;4.60;;;17.20;47.70;;;;;;4972988;28;20456;-72
2022/05/13 01:37:32;;;;;;;6.00;4.60;;;17.20;47.70;;;;;;4972725;28;20274;-73
2022/05/13 01:39:58;;;;;;;5.00;4.40;;;17.10;47.70;;;;;;4973033;28;20450;-72
2022/05/13 01:42:24;;;;;;;4.53;4.07;;;17.10;48.20;;;;;;4955582;28;20511;-72
2022/05/13 01:44:49;;;;;;;6.57;4.70;;;17.00;47.50;;;;;;4972905;28;20625;-72
2022/05/13 01:47:15;;;;;;;5.23;4.00;;;17.00;47.60;;;;;;4972586;28;20598;-72
2022/05/13 01:49:40;;;;;;;5.27;4.37;;;17.00;48.20;;;;;;4972844;28;20181;-72
2022/05/13 01:52:06;;;;;;;3.73;3.33;;;17.00;47.80;;;;;;4972877;28;20208;-72
2022/05/13 01:54:32;;;;;;;6.17;3.93;;;17.00;48.30;;;;;;4973164;28;20193;-72
2022/05/13 01:56:57;;;;;;;5.10;4.00;;;17.00;48.60;;;;;;4972922;28;20292;-72
2022/05/13 01:59:23;;;;;;;3.27;2.97;;;17.00;47.70;;;;;;4972708;28;20217;-72
2022/05/13 02:01:48;;;;;;;4.83;4.00;;;17.00;48.60;;;;;;4972768;28;20380;-73
2022/05/13 02:04:14;;;;;;;4.40;3.70;;;16.90;49.30;;;;;;4972928;28;20185;-73
2022/05/13 02:06:39;;;;;;;4.57;4.10;;;17.00;48.80;;;;;;4972791;28;20579;-72
2022/05/13 02:09:05;;;;;;;4.17;3.77;;;17.10;48.00;;;;;;4972553;28;20173;-72
2022/05/13 02:11:36;;;;;;;4.87;4.40;;;17.10;47.70;;;;;;4957307;28;20189;-72
2022/05/13 02:14:02;;;;;;;4.73;4.20;;;17.00;47.60;;;;;;4959133;28;20300;-73
2022/05/13 02:16:28;;;;;;;5.57;4.17;;;17.10;47.70;;;;;;4976240;28;20487;-72
2022/05/13 02:18:53;;;;;;;5.20;3.53;;;17.10;47.60;;;;;;4958841;28;20200;-72
2022/05/13 02:21:19;;;;;;;5.03;4.30;;;17.10;47.60;;;;;;4976200;28;20205;-72
2022/05/13 02:23:45;;;;;;;3.97;3.20;;;17.10;47.60;;;;;;4976252;28;20316;-72
2022/05/13 02:26:12;;;;;;;4.97;3.70;;;17.10;47.60;;;;;;4976140;28;20444;-72
2022/05/13 02:28:38;;;;;;;4.10;3.70;;;17.10;47.60;;;;;;4975961;28;20181;-72
2022/05/13 02:31:05;;;;;;;4.90;4.27;;;17.10;47.60;;;;;;4976092;28;20460;-72
2022/05/13 02:33:31;;;;;;;4.83;4.10;;;17.20;47.70;;;;;;4976155;28;20765;-73
2022/05/13 02:35:59;;;;;;;5.93;4.33;;;17.10;47.20;;;;;;4976058;28;20416;-72
2022/05/13 02:38:25;;;;;;;3.87;3.47;;;17.20;47.70;;;;;;4958353;28;20858;-73
2022/05/13 02:43:35;;;;;;;7.83;3.27;;;17.10;47.20;;;;;;4975978;28;20464;-73
2022/05/13 02:46:01;;;;;;;5.47;3.70;;;17.00;47.50;;;;;;4975877;28;20843;-73
2022/05/13 02:48:26;;;;;;;4.40;3.70;;;17.00;47.60;;;;;;4958294;28;20205;-72
2022/05/13 02:50:52;;;;;;;4.63;3.90;;;17.00;47.60;;;;;;4975817;28;20914;-72
2022/05/13 02:53:18;;;;;;;4.23;3.37;;;17.10;47.60;;;;;;4958294;28;20182;-73
2022/05/13 02:55:43;;;;;;;6.50;4.73;;;17.00;47.50;;;;;;4975664;28;20575;-73
2022/05/13 02:58:09;;;;;;;5.33;4.30;;;17.10;47.10;;;;;;4975283;28;20208;-73
2022/05/13 03:00:35;;;;;;;8.23;4.37;;;17.10;47.70;;;;;;4975913;28;20177;-73
2022/05/13 03:03:00;;;;;;;4.73;3.30;;;17.10;47.10;;;;;;4958209;28;20221;-73
2022/05/13 03:05:26;;;;;;;3.80;3.00;;;17.10;47.10;;;;;;4958371;28;20181;-73
2022/05/13 03:07:53;;;;;;;4.47;4.07;;;17.10;47.20;;;;;;4957799;28;20205;-73
2022/05/13 03:10:19;;;;;;;4.10;3.70;;;17.10;46.90;;;;;;4975406;28;20533;-73
2022/05/13 03:12:45;;;;;;;3.97;3.13;;;17.10;46.70;;;;;;4975277;28;20787;-72
2022/05/13 03:15:11;;;;;;;5.43;3.87;;;17.10;47.20;;;;;;4957992;28;20476;-72
2022/05/13 03:17:37;;;;;;;3.37;3.00;;;17.10;47.40;;;;;;4974844;28;20248;-73
2022/05/13 03:20:05;;;;;;;9.17;5.03;;;17.10;47.50;;;;;;4975288;28;20531;-72
2022/05/13 03:22:30;;;;;;;8.97;4.07;;;16.80;48.70;;;;;;4974344;28;20969;-73
2022/05/13 03:24:56;;;;;;;4.50;4.03;;;16.70;49.10;;;;;;4975106;28;20452;-72
2022/05/13 03:27:21;;;;;;;4.43;3.90;;;16.50;50.70;;;;;;4974746;28;20185;-72
2022/05/13 03:29:47;;;;;;;4.20;3.80;;;16.50;50.90;;;;;;4975088;28;20208;-72
2022/05/13 03:32:12;;;;;;;4.93;4.43;;;16.50;49.50;;;;;;4975023;28;20260;-72
2022/05/13 03:34:39;;;;;;;7.07;5.00;;;16.30;51.40;;;;;;4974956;28;20189;-72
2022/05/13 03:37:05;;;;;;;5.43;4.93;;;16.30;52.00;;;;;;4957524;28;20263;-72
2022/05/13 03:39:31;;;;;;;5.53;4.60;;;16.20;53.20;;;;;;4974640;28;20495;-72
2022/05/13 03:41:56;;;;;;;5.73;5.10;;;16.10;54.40;;;;;;4957395;28;20570;-72
2022/05/13 03:44:22;;;;;;;6.27;5.50;;;16.10;55.10;;;;;;4974843;28;20236;-72
2022/05/13 03:46:47;;;;;;;5.57;4.60;;;16.30;53.80;;;;;;4974753;28;20612;-72
2022/05/13 03:49:13;;;;;;;7.43;5.90;;;16.40;52.10;;;;;;4974547;28;20200;-72
2022/05/13 03:51:39;;;;;;;4.00;3.70;;;16.20;52.90;;;;;;4974704;28;20180;-72
2022/05/13 03:54:05;;;;;;;4.90;4.40;;;16.30;53.50;;;;;;4974570;28;20479;-72
2022/05/13 03:56:30;;;;;;;7.33;5.77;;;16.50;51.60;;;;;;4974499;28;20204;-72
2022/05/13 03:58:56;;;;;;;5.13;4.63;;;16.50;52.00;;;;;;4974335;28;20589;-72
2022/05/13 04:01:22;;;;;;;4.30;3.80;;;16.60;51.10;;;;;;4974430;28;20691;-72
2022/05/13 04:03:47;;;;;;;5.93;4.20;;;16.60;51.40;;;;;;4974523;28;20208;-73
2022/05/13 04:08:59;;;;;;;4.40;3.93;;;16.80;50.00;;;;;;4974250;28;20235;-72
2022/05/13 04:11:30;;;;;;;6.30;4.70;;;16.70;50.50;;;;;;4974421;28;20428;-72
2022/05/13 04:16:40;;;;;;;6.83;6.13;;;16.90;49.80;;;;;;4974280;28;20462;-72
2022/05/13 04:19:06;;;;;;;4.17;3.80;;;16.90;49.50;;;;;;4973974;28;20425;-73
2022/05/13 04:21:35;;;;;;;4.93;4.20;;;17.00;47.50;;;;;;4956671;28;20321;-71
2022/05/13 04:24:04;;;;;;;5.00;3.73;;;17.00;47.50;;;;;;4956599;28;20186;-72
2022/05/13 04:26:30;;;;;;;5.40;4.80;;;17.00;47.50;;;;;;4973969;28;20440;-72
2022/05/13 04:28:56;;;;;;;4.23;3.83;;;17.10;46.40;;;;;;4973760;28;20409;-71
2022/05/13 04:31:28;;;;;;;6.00;5.10;;;17.20;46.40;;;;;;4956607;28;20413;-73
2022/05/13 04:33:55;;;;;;;4.30;3.90;;;17.10;46.10;;;;;;4956485;28;20428;-72
2022/05/13 04:36:21;;;;;;;6.33;5.37;;;17.20;45.90;;;;;;4973841;28;20415;-72
2022/05/13 04:38:47;;;;;;;4.93;4.30;;;17.20;45.70;;;;;;4956231;28;20420;-72
2022/05/13 04:43:58;;;;;;;3.90;3.60;;;17.30;44.90;;;;;;4974387;28;20953;-74
2022/05/13 04:46:24;;;;;;;5.80;4.97;;;17.30;44.50;;;;;;4974105;28;20400;-73
2022/05/13 04:48:51;;;;;;;3.97;3.57;;;17.30;44.30;;;;;;4973555;28;20408;-73
2022/05/13 04:51:17;;;;;;;4.87;4.07;;;17.40;43.70;;;;;;4973757;28;20256;-73
2022/05/13 04:53:44;;;;;;;5.70;4.40;;;17.40;43.60;;;;;;4956374;28;20659;-73
2022/05/13 04:56:10;;;;;;;4.37;3.97;;;17.40;44.40;;;;;;4973536;28;20419;-73
2022/05/13 04:58:38;;;;;;;4.03;3.63;;;17.40;44.90;;;;;;4973200;28;20914;-73
2022/05/13 05:01:06;;;;;;;6.50;5.90;;;17.40;44.40;;;;;;4956098;28;20228;-73
2022/05/13 05:03:33;;;;;;;5.17;4.67;;;17.50;44.50;;;;;;4973404;28;20428;-73
2022/05/13 05:05:59;;;;;;;5.07;3.63;;;17.60;44.50;;;;;;4973412;28;20433;-73
2022/05/13 05:08:27;;;;;;;5.47;4.53;;;17.60;43.80;;;;;;4955835;28;21024;-72
2022/05/13 05:10:53;;;;;;;3.43;3.20;;;17.60;42.90;;;;;;4973462;28;20185;-72
2022/05/13 05:13:30;;;;;;;4.00;3.47;;;17.70;43.00;;;;;;4973223;28;20409;-72
2022/05/13 05:15:56;;;;;;;6.57;4.60;;;17.60;42.90;;;;;;4955805;28;20184;-73
2022/05/13 05:18:22;;;;;;;5.17;4.70;;;17.60;42.70;;;;;;4970870;28;20456;-75
2022/05/13 05:20:48;;;;;;;4.13;3.73;;;17.60;42.90;;;;;;4973280;28;20428;-71
2022/05/13 05:23:16;;;;;;;4.90;4.40;;;17.60;42.90;;;;;;4973223;28;20204;-72
2022/05/13 05:25:43;;;;;;;7.77;5.17;;;17.70;43.10;;;;;;4972112;28;20428;-72
2022/05/13 05:28:09;;;;;;;4.07;3.67;;;17.70;42.20;;;;;;4972883;28;20969;-72
2022/05/13 05:30:35;;;;;;;8.27;5.67;;;17.80;42.30;;;;;;4973493;28;20417;-73
2022/05/13 05:33:00;;;;;;;4.77;3.50;;;17.80;42.30;;;;;;4972297;28;20686;-72
2022/05/13 05:35:26;;;;;;;4.40;4.00;;;17.80;42.40;;;;;;4973616;28;20670;-72
2022/05/13 05:37:52;;;;;;;4.50;3.90;;;17.80;42.90;;;;;;4973008;28;20202;-72
2022/05/13 05:40:17;;;;;;;3.93;3.63;;;17.90;42.80;;;;;;4973300;28;20431;-72
2022/05/13 05:42:43;;;;;;;4.87;4.37;;;17.90;42.20;;;;;;4973250;28;20205;-73
2022/05/13 05:45:12;;;;;;;4.30;3.80;;;18.00;41.60;;;;;;4973289;28;20685;-74
2022/05/13 05:47:38;;;;;;;4.77;4.33;;;18.10;40.80;;;;;;4977108;28;20709;-72
2022/05/13 05:50:06;;;;;;;5.37;4.80;;;18.10;40.80;;;;;;4977366;28;20412;-73
2022/05/13 05:52:32;;;;;;;4.33;3.87;;;17.90;41.40;;;;;;4977381;28;20639;-73
2022/05/13 05:57:56;;;;;;;4.10;3.70;;;17.80;43.10;;;;;;4976478;28;20244;-72
2022/05/13 06:00:21;;;;;;;5.63;5.13;;;17.90;43.20;;;;;;4976798;28;20890;-75
2022/05/13 06:02:47;;;;;;;4.87;4.43;;;17.80;42.70;;;;;;4975461;28;20555;-72
2022/05/13 06:05:12;;;;;;;5.63;4.57;;;17.80;43.00;;;;;;4976759;28;20208;-72
2022/05/13 06:07:38;;;;;;;4.93;3.87;;;17.80;43.10;;;;;;4974971;28;20201;-72
2022/05/13 06:10:03;;;;;;;8.63;5.93;;;17.70;44.40;;;;;;4977894;28;20184;-72
2022/05/13 06:12:29;;;;;;;5.00;4.47;;;17.80;43.70;;;;;;4977737;28;20191;-72
2022/05/13 06:14:54;;;;;;;5.73;4.37;;;17.80;43.10;;;;;;4975546;28;20185;-72
2022/05/13 06:17:20;;;;;;;5.33;4.83;;;17.60;44.50;;;;;;4974805;28;20240;-73
2022/05/13 06:19:46;;;;;;;6.40;4.47;;;17.30;47.10;;;;;;4976797;28;20181;-73
2022/05/13 06:22:12;;;;;;;4.90;4.03;;;17.30;47.80;;;;;;4975421;28;20492;-72
2022/05/13 06:24:37;;;;;;;5.20;4.70;;;17.40;46.90;;;;;;4976967;28;20185;-72
2022/05/13 06:27:03;;;;;;;5.50;4.70;;;17.20;47.70;;;;;;4975246;28;20736;-72
2022/05/13 06:29:30;;;;;;;5.33;4.83;;;17.20;48.80;;;;;;4976413;28;20409;-72
2022/05/13 06:31:58;;;;;;;5.90;3.93;;;17.10;47.60;;;;;;4976522;28;20503;-72
2022/05/13 06:34:24;;;;;;;4.90;3.40;;;17.20;47.20;;;;;;4976594;28;20607;-72
2022/05/13 06:36:50;;;;;;;10.73;4.10;;;17.20;45.10;;;;;;4976540;28;20456;-71
2022/05/13 06:39:16;;;;;;;5.93;3.73;;;17.10;41.70;;;;;;4976691;28;20443;-73
2022/05/13 06:41:42;;;;;;;3.20;2.90;;;17.10;42.50;;;;;;4976243;28;20212;-72
2022/05/13 06:44:08;;;;;;;4.20;3.80;;;17.20;41.10;;;;;;4974981;28;20427;-73
2022/05/13 06:46:37;;;;;;;4.53;4.10;;;17.20;40.70;;;;;;4974976;28;20197;-72
2022/05/13 06:49:06;;;;;;;5.53;3.40;;;17.20;41.30;;;;;;4974634;28;20415;-73
2022/05/13 06:51:33;;;;;;;3.43;2.70;;;17.20;41.70;;;;;;4975958;28;20859;-73
2022/05/13 06:54:03;;;;;;;4.93;3.07;;;17.20;42.10;;;;;;4974700;28;20467;-72
2022/05/13 06:56:33;;;;;;;3.00;2.50;;;17.20;42.60;;;;;;4975650;28;20452;-75
2022/05/13 06:58:58;;;;;;;4.37;3.97;;;17.20;42.60;;;;;;4974456;28;20427;-72
2022/05/13 07:01:24;;;;;;;4.83;3.70;;;17.30;42.70;;;;;;4975701;28;20503;-73
2022/05/13 07:03:50;;;;;;;3.50;3.20;;;17.30;43.60;;;;;;4975691;28;20507;-72
2022/05/13 07:06:16;;;;;;;6.10;4.83;;;17.30;42.90;;;;;;4975598;28;20257;-73
2022/05/13 07:08:42;;;;;;;5.20;3.57;;;17.30;43.40;;;;;;4975588;28;20173;-73
2022/05/13 07:11:07;;;;;;;7.17;4.03;;;17.40;43.10;;;;;;4975847;28;20452;-73
2022/05/13 07:13:33;;;;;;;4.03;3.63;;;17.40;43.10;;;;;;4975647;28;20216;-72
2022/05/13 07:15:59;;;;;;;4.40;3.40;;;17.40;43.40;;;;;;4975685;28;20184;-72
2022/05/13 07:18:25;;;;;;;2.60;2.40;;;17.50;43.50;;;;;;4974989;28;20248;-73
2022/05/13 07:20:50;;;;;;;3.23;2.93;;;17.60;42.80;;;;;;4957916;28;20453;-72
2022/05/13 07:23:16;;;;;;;4.47;3.80;;;17.60;42.90;;;;;;4957936;28;20567;-76
2022/05/13 07:25:41;;;;;;;5.10;3.77;;;17.60;42.20;;;;;;4975353;28;20648;-72
2022/05/13 07:28:07;;;;;;;4.57;4.07;;;17.60;42.10;;;;;;4975061;28;20193;-73
2022/05/13 07:30:33;;;;;;;4.50;3.90;;;17.70;40.80;;;;;;4958196;28;20218;-73
2022/05/13 07:32:58;;;;;;;3.40;3.10;;;17.60;40.20;;;;;;4975125;28;20224;-74
2022/05/13 07:35:24;;;;;;;6.67;3.30;;;17.50;40.70;;;;;;4957772;28;20272;-74
2022/05/13 07:37:50;;;;;;;4.10;3.40;;;17.50;41.80;;;;;;4957665;28;20440;-72
2022/05/13 07:43:00;;;;;;;6.67;4.00;;;17.70;42.00;;;;;;4975010;28;20702;-72
2022/05/13 07:45:26;;;;;;;5.93;4.10;;;17.80;41.20;;;;;;4974940;28;20804;-73
2022/05/13 07:47:52;;;;;;;5.07;4.67;;;17.90;40.00;;;;;;4974589;28;20428;-73
2022/05/13 07:50:18;;;;;;;4.33;3.93;;;17.90;41.10;;;;;;4974753;28;20248;-73
2022/05/13 07:52:43;;;;;;;4.27;3.87;;;17.90;40.10;;;;;;4975129;28;20263;-73
2022/05/13 07:55:11;;;;;;;4.20;3.80;;;18.00;39.30;;;;;;4957585;28;20497;-74
2022/05/13 07:57:40;;;;;;;11.60;5.07;;;18.00;39.60;;;;;;4975948;28;20197;-72
2022/05/13 08:00:25;;;;;;;5.40;4.37;;;17.80;40.00;;;;;;4974751;28;20432;-73
2022/05/13 08:03:03;;;;;;;4.60;4.20;;;17.80;41.00;;;;;;4974399;28;20519;-73
2022/05/13 08:05:40;;;;;;;5.27;3.63;;;17.80;40.00;;;;;;4974672;28;20460;-72
2022/05/13 08:08:15;;;;;;;5.47;3.20;;;17.80;40.00;;;;;;4974126;28;20433;-73
2022/05/13 08:10:45;;;;;;;4.60;3.70;;;17.90;40.00;;;;;;4974531;28;20883;-72
2022/05/13 08:13:11;;;;;;;4.30;3.90;;;17.90;38.60;;;;;;4975648;28;20479;-72
2022/05/13 08:15:38;;;;;;;4.40;3.93;;;17.90;38.80;;;;;;4975525;28;20906;-72
2022/05/13 08:18:04;;;;;;;3.57;3.27;;;18.00;36.80;;;;;;4974175;28;20602;-73
2022/05/13 08:20:30;;;;;;;4.10;3.70;;;17.90;37.40;;;;;;4974451;28;20863;-72
2022/05/13 08:22:57;;;;;;;5.60;4.20;;;18.00;37.20;;;;;;4974145;28;20958;-73
2022/05/13 08:25:22;;;;;;;6.77;4.43;;;18.00;38.00;;;;;;4974520;28;20854;-73
2022/05/13 08:27:48;;;;;;;3.77;3.30;;;18.00;36.60;;;;;;4974131;28;20433;-73
2022/05/13 08:30:15;;;;;;;5.40;4.60;;;18.00;36.30;;;;;;4974402;28;20436;-73
2022/05/13 08:32:41;;;;;;;4.10;3.70;;;18.10;37.00;;;;;;4974202;28;20433;-73
2022/05/13 08:35:07;;;;;;;5.50;4.60;;;18.20;36.50;;;;;;4974610;28;20415;-73
2022/05/13 08:37:43;;;;;;;5.90;4.13;;;18.20;35.50;;;;;;4974332;28;20193;-73
2022/05/13 08:40:27;;;;;;;3.80;3.50;;;18.10;35.40;;;;;;4974215;28;20420;-73
2022/05/13 08:42:53;;;;;;;4.33;3.67;;;18.20;36.20;;;;;;4974106;28;20992;-73
2022/05/13 08:45:20;;;;;;;4.67;4.13;;;18.30;35.10;;;;;;4956933;28;20491;-73
2022/05/13 08:47:57;;;;;;;6.67;3.33;;;18.30;34.80;;;;;;4956238;28;20477;-76
2022/05/13 08:50:32;;;;;;;5.93;4.23;;;18.40;34.10;;;;;;4973863;28;20439;-73
2022/05/13 08:53:10;;;;;;;4.80;3.50;;;18.50;33.60;;;;;;4974232;28;20416;-73
2022/05/13 08:56:01;;;;;;;3.83;3.50;;;18.50;34.40;;;;;;4974020;28;20831;-73
2022/05/13 08:58:56;;;;;;;5.53;4.83;;;18.60;33.30;;;;;;4962333;28;20660;-75
2022/05/13 09:01:29;;;;;;;5.87;5.20;;;18.70;33.40;;;;;;4922548;28;20503;-73
2022/05/13 09:04:02;;;;;;;5.60;5.20;;;18.70;31.60;;;;;;4956676;28;20620;-72
2022/05/13 09:06:39;;;;;;;11.30;5.33;;;18.90;31.80;;;;;;4973815;28;20429;-73
2022/05/13 09:09:08;;;;;;;5.60;5.20;;;19.10;31.70;;;;;;4973533;28;20459;-75
2022/05/13 09:11:57;;;;;;;5.00;4.60;;;19.20;32.00;;;;;;4973600;28;20417;-72
2022/05/13 09:14:43;;;;;;;6.90;6.40;;;19.40;29.20;;;;;;4973626;28;20436;-75
2022/05/13 09:17:33;;;;;;;6.90;6.20;;;19.20;28.90;;;;;;4960399;28;20796;-72
2022/05/13 09:20:07;;;;;;;9.23;6.23;;;19.30;29.00;;;;;;4973187;28;20926;-72
2022/05/13 09:22:49;;;;;;;5.83;5.43;;;19.30;29.00;;;;;;4972184;28;20483;-72
2022/05/13 09:25:22;;;;;;;6.43;5.93;;;19.40;29.50;;;;;;4973547;28;20506;-72
2022/05/13 09:27:51;;;;;;;6.07;5.57;;;19.50;29.10;;;;;;4973112;28;20962;-73
2022/05/13 09:30:19;;;;;;;7.67;7.00;;;19.70;28.20;;;;;;4973386;28;20489;-72
2022/05/13 09:32:45;;;;;;;7.00;6.60;;;19.50;27.00;;;;;;4971970;28;20417;-72
2022/05/13 09:35:19;;;;;;;6.93;6.53;;;19.50;26.80;;;;;;4972445;28;20424;-73
2022/05/13 09:37:45;;;;;;;7.30;6.70;;;19.50;27.40;;;;;;4973391;28;20252;-73
2022/05/13 09:40:17;;;;;;;5.70;5.40;;;19.60;27.10;;;;;;4973582;28;20495;-73
2022/05/13 09:42:48;;;;;;;6.03;5.73;;;19.70;28.10;;;;;;4971683;28;20486;-73
2022/05/13 09:45:30;;;;;;;8.23;7.73;;;20.00;27.90;;;;;;4971693;28;20413;-75
2022/05/13 09:48:04;;;;;;;7.53;6.93;;;20.50;26.50;;;;;;4971383;28;20441;-73
2022/05/13 09:50:33;;;;;;;8.10;7.50;;;20.90;25.80;;;;;;4973296;28;20419;-73
2022/05/13 09:53:07;;;;;;;8.60;8.20;;;21.10;25.40;;;;;;4972732;28;20444;-75
2022/05/13 09:55:38;;;;;;;8.50;7.90;;;21.50;24.30;;;;;;4972778;28;20415;-74
2022/05/13 09:58:20;;;;;;;9.57;9.03;;;21.50;24.40;;;;;;4972474;28;20436;-72
2022/05/13 10:00:52;;;;;;;9.00;8.50;;;21.70;24.00;;;;;;4972636;28;20417;-73
2022/05/13 10:03:25;;;;;;;10.17;9.37;;;22.00;23.20;;;;;;4971280;28;20460;-72
2022/05/13 10:06:08;;;;;;;8.90;8.43;;;22.30;23.40;;;;;;4972725;28;20415;-72
2022/05/13 10:08:53;;;;;;;9.63;9.23;;;22.80;21.80;;;;;;4972463;28;20428;-73
2022/05/13 10:14:23;;;;;;;12.00;11.20;;;23.60;20.90;;;;;;4972988;28;20937;-73
2022/05/13 10:16:50;;;;;;;11.63;10.80;;;24.00;20.20;;;;;;4973879;28;20813;-73
2022/05/13 10:19:39;;;;;;;12.90;12.07;;;24.30;19.50;;;;;;4971958;28;20417;-73
2022/05/13 10:22:11;;;;;;;12.17;11.50;;;24.50;18.40;;;;;;4972654;28;20820;-73
2022/05/13 10:25:10;;;;;;;11.73;11.13;;;24.60;17.90;;;;;;4971462;28;20425;-73
2022/05/13 10:27:57;;;;;;;12.17;11.47;;;24.90;18.50;;;;;;4961455;28;20445;-73
2022/05/13 10:30:45;;;;;;;12.40;11.80;;;25.20;15.60;;;;;;4972666;28;20412;-72
2022/05/13 10:33:29;;;;;;;13.30;12.50;;;25.00;15.50;;;;;;4974384;28;20453;-72
2022/05/13 10:36:32;;;;;;;12.67;12.07;;;24.90;15.40;;;;;;4976222;28;20421;-73
2022/05/13 10:39:19;;;;;;;12.60;12.00;;;24.30;15.50;;;;;;4975951;28;20759;-73
2022/05/13 10:41:48;;;;;;;12.50;11.70;;;24.50;15.70;;;;;;4974588;28;20463;-73
2022/05/13 10:44:24;;;;;;;12.40;11.70;;;24.90;16.00;;;;;;4975738;28;20416;-74
2022/05/13 10:46:56;;;;;;;13.13;12.33;;;25.00;16.40;;;;;;4975952;28;20428;-73
2022/05/13 10:49:34;;;;;;;12.80;12.07;;;24.50;15.20;;;;;;4975902;28;20753;-73
2022/05/13 10:52:27;;;;;;;13.03;12.33;;;24.60;15.00;;;;;;4976046;28;20420;-73
2022/05/13 10:55:03;;;;;;;12.70;11.77;;;24.50;16.20;;;;;;4976068;28;20419;-73
2022/05/13 10:58:00;;;;;;;13.13;12.43;;;24.20;16.00;;;;;;4975751;28;20799;-72
2022/05/13 11:00:48;;;;;;;14.33;13.13;;;24.20;15.20;;;;;;4971832;28;20516;-77
2022/05/13 11:03:25;;;;;;;12.37;11.77;;;24.30;15.60;;;;;;4976365;28;20518;-74
2022/05/13 11:06:21;;;;;;;12.23;11.73;;;24.00;15.00;;;;;;4977106;28;20448;-71
2022/05/13 11:09:08;;;;;;;13.43;12.63;;;23.80;16.00;;;;;;4961482;28;20803;-72
2022/05/13 11:11:43;;;;;;;13.13;11.90;;;23.30;18.30;;;;;;4974576;28;20421;-73
2022/05/13 11:14:24;;;;;;;12.90;12.20;;;23.20;17.20;;;;;;4975766;28;20932;-73
2022/05/13 11:17:04;;;;;;;13.43;12.30;;;22.90;17.70;;;;;;5011602;23;20584;-74
2022/05/13 11:19:57;;;;;;;12.20;11.50;;;22.90;17.70;;;;;;4958019;28;20425;-74
2022/05/13 11:22:33;;;;;;;12.27;11.57;;;22.70;18.40;;;;;;4975344;28;20452;-74
2022/05/13 11:28:03;;;;;;;11.53;10.93;;;22.30;18.90;;;;;;4975084;28;20908;-74
2022/05/13 11:30:35;;;;;;;11.87;11.10;;;22.30;19.30;;;;;;4957755;28;20796;-74
2022/05/13 11:33:18;;;;;;;11.50;10.70;;;22.50;18.30;;;;;;4975247;28;21127;-74
2022/05/13 11:36:03;;;;;;;11.90;11.30;;;22.70;17.70;;;;;;4975133;28;20458;-74
2022/05/13 11:38:44;;;;;;;11.13;10.53;;;22.80;18.50;;;;;;4974964;28;20432;-74
2022/05/13 11:41:13;;;;;;;11.60;11.00;;;22.90;18.50;;;;;;4957879;28;20538;-76
2022/05/13 11:43:38;;;;;;;11.50;10.60;;;23.20;18.60;;;;;;4974189;28;20973;-74
2022/05/13 11:46:10;;;;;;;11.60;10.90;;;23.40;17.60;;;;;;4975137;28;20512;-74
2022/05/13 11:48:41;;;;;;;12.23;11.40;;;23.50;17.20;;;;;;4974800;28;20194;-74
2022/05/13 11:51:20;;;;;;;12.00;11.20;;;23.60;17.70;;;;;;4974742;28;20409;-74
2022/05/13 11:53:59;;;;;;;12.43;11.63;;;23.90;17.80;;;;;;4974588;28;20428;-74
2022/05/13 11:56:31;;;;;;;11.53;10.93;;;24.10;16.60;;;;;;4974619;28;20409;-75
2022/05/13 11:59:37;;;;;;;12.40;11.67;;;24.40;16.00;;;;;;4956977;28;20785;-75
2022/05/13 12:02:12;;;;;;;12.70;12.03;;;24.80;16.40;;;;;;4973889;28;20989;-75
2022/05/13 12:05:00;;;;;;;12.27;11.77;;;25.00;15.40;;;;;;4974495;28;20420;-75
2022/05/13 12:07:29;;;;;;;11.90;11.30;;;25.10;14.60;;;;;;4956723;28;20449;-74
2022/05/13 12:09:57;;;;;;;12.23;11.53;;;25.10;14.50;;;;;;4974317;28;20832;-74
2022/05/13 12:12:41;;;;;;;13.30;12.30;;;25.00;15.30;;;;;;4956856;28;20421;-75
2022/05/13 12:15:35;;;;;;;13.63;12.73;;;25.20;13.40;;;;;;4974321;28;20413;-74
2022/05/13 12:18:10;;;;;;;13.17;12.50;;;25.30;12.90;;;;;;4938680;28;20988;-74
2022/05/13 12:20:47;;;;;;;12.93;12.43;;;25.50;12.90;;;;;;4974180;28;20420;-74
2022/05/13 12:23:22;;;;;;;14.00;13.20;;;25.60;12.80;;;;;;4974016;28;20467;-74
2022/05/13 12:25:53;;;;;;;13.63;13.03;;;25.70;12.10;;;;;;4974237;28;20476;-74
2022/05/13 12:28:19;;;;;;;13.77;12.97;;;25.70;11.30;;;;;;4973860;28;20792;-74
2022/05/13 12:30:49;;;;;;;13.63;12.93;;;25.80;11.50;;;;;;4974036;28;20420;-74
2022/05/13 12:33:20;;;;;;;13.20;12.50;;;25.80;11.40;;;;;;4974129;28;20674;-75
2022/05/13 12:39:05;;;;;;;13.43;12.63;;;25.60;11.70;;;;;;4973989;28;20436;-75
2022/05/13 12:41:43;;;;;;;13.33;12.63;;;25.50;12.90;;;;;;4973699;28;20432;-75
2022/05/13 12:44:16;;;;;;;13.53;12.83;;;25.30;12.40;;;;;;4956373;28;20428;-74
2022/05/13 12:46:51;;;;;;;13.40;12.77;;;25.30;12.60;;;;;;4973531;28;20408;-75
2022/05/13 12:49:27;;;;;;;13.67;13.07;;;25.50;11.40;;;;;;4973562;28;20413;-74
2022/05/13 12:52:14;;;;;;;13.10;12.40;;;25.60;12.00;;;;;;4973537;28;20429;-74
2022/05/13 12:54:52;;;;;;;13.40;12.70;;;25.70;11.90;;;;;;4973342;28;20439;-74
2022/05/13 12:57:39;;;;;;;13.23;12.63;;;25.10;12.10;;;;;;4972946;28;20436;-75
2022/05/13 13:00:19;;;;;;;13.60;12.90;;;25.10;12.30;;;;;;4973509;28;20428;-75
2022/05/13 13:02:52;;;;;;;12.97;12.13;;;24.90;13.00;;;;;;4973258;28;20468;-75
2022/05/13 13:05:30;;;;;;;14.30;13.40;;;24.40;12.60;;;;;;4973526;28;20405;-73
2022/05/13 13:08:10;;;;;;;13.20;12.60;;;24.20;14.50;;;;;;4973082;28;20483;-73
2022/05/13 13:10:36;;;;;;;13.20;12.53;;;24.50;13.80;;;;;;4973412;28;20400;-75
2022/05/13 13:13:16;;;;;;;13.30;12.70;;;24.80;13.40;;;;;;4973275;28;20483;-74
2022/05/13 13:15:51;;;;;;;12.43;11.83;;;25.00;12.30;;;;;;4973138;28;20181;-74
2022/05/13 13:18:27;;;;;;;12.87;12.27;;;24.80;13.10;;;;;;4973075;28;21024;-75
2022/05/13 13:21:01;;;;;;;13.33;12.57;;;24.60;13.80;;;;;;4973040;28;20420;-76
2022/05/13 13:23:35;;;;;;;12.43;11.93;;;24.80;13.30;;;;;;4973057;28;20483;-76
2022/05/13 13:26:03;;;;;;;12.50;11.80;;;24.60;13.40;;;;;;4973136;28;20455;-75
2022/05/13 13:28:32;;;;;;;14.70;13.50;;;24.60;13.60;;;;;;4972786;28;20491;-74